Time;durP1;ratioP1;P1;durP2;ratioP2;P2;SDS_P1;SDS_P2;PMS_P1;PMS_P2;Temp;Humidity;BMP_temperature;BMP_pressure;BME280_temperature;BME280_humidity;BME280_pressure;Samples;Min_cycle;Max_cycle;Signal;HPM_P1;HPM_P2
2021/04/22 00:00:55;;;;;;;9.20;7.53;;;9.80;46.90;;;;;;5066955;28;39951;-79
2021/04/22 00:03:22;;;;;;;9.50;7.60;;;9.70;47.00;;;;;;5072090;28;39411;-79
2021/04/22 00:05:50;;;;;;;8.83;7.27;;;9.70;47.20;;;;;;5066478;28;37652;-79
2021/04/22 00:08:17;;;;;;;7.90;6.87;;;9.60;47.50;;;;;;5074449;28;40146;-78
2021/04/22 00:10:46;;;;;;;7.60;6.40;;;9.60;47.60;;;;;;5055177;28;38216;-79
2021/04/22 00:13:18;;;;;;;7.60;6.43;;;9.60;47.60;;;;;;5068703;28;37693;-79
2021/04/22 00:15:45;;;;;;;9.83;6.73;;;9.50;47.70;;;;;;5043848;28;35553;-79
2021/04/22 00:18:14;;;;;;;8.33;6.30;;;9.40;47.80;;;;;;5091052;28;38149;-79
2021/04/22 00:20:41;;;;;;;7.17;5.50;;;9.40;47.80;;;;;;5070701;28;39722;-79
2021/04/22 00:23:09;;;;;;;7.80;6.40;;;9.30;47.70;;;;;;5062512;28;38382;-79
2021/04/22 00:25:37;;;;;;;9.27;6.60;;;9.30;47.70;;;;;;5054664;28;36687;-79
2021/04/22 00:28:05;;;;;;;7.40;6.37;;;9.20;48.00;;;;;;5061644;28;40054;-79
2021/04/22 00:30:33;;;;;;;8.00;6.50;;;9.20;48.30;;;;;;5062319;28;38902;-79
2021/04/22 00:33:03;;;;;;;8.07;7.00;;;9.10;48.40;;;;;;5061855;28;38383;-79
2021/04/22 00:35:31;;;;;;;8.50;7.00;;;9.10;48.50;;;;;;5068082;28;38200;-79
2021/04/22 00:37:58;;;;;;;6.90;6.20;;;9.10;48.90;;;;;;5058815;28;40613;-78
2021/04/22 00:40:27;;;;;;;7.50;6.77;;;9.00;48.90;;;;;;5085925;28;39125;-79
2021/04/22 00:42:55;;;;;;;8.20;7.03;;;9.00;49.20;;;;;;5051709;28;37345;-79
2021/04/22 00:45:23;;;;;;;9.20;6.80;;;9.00;49.20;;;;;;5077221;28;38648;-79
2021/04/22 00:47:50;;;;;;;8.13;6.60;;;9.00;49.20;;;;;;5078060;28;39267;-79
2021/04/22 00:50:22;;;;;;;8.80;6.73;;;9.10;49.30;;;;;;5077338;28;39827;-78
2021/04/22 00:52:53;;;;;;;9.23;7.20;;;9.10;49.20;;;;;;5056094;28;37064;-79
2021/04/22 00:55:20;;;;;;;7.83;6.30;;;9.10;49.00;;;;;;5047960;28;36124;-79
2021/04/22 00:57:47;;;;;;;7.17;6.47;;;9.20;49.20;;;;;;5073631;28;39572;-79
2021/04/22 01:00:20;;;;;;;8.67;7.80;;;9.20;49.70;;;;;;5085652;28;37813;-80
2021/04/22 01:02:47;;;;;;;8.07;7.23;;;9.20;49.10;;;;;;5069754;28;38850;-79
2021/04/22 01:05:19;;;;;;;10.73;6.93;;;9.20;49.30;;;;;;5061517;28;35949;-79
2021/04/22 01:07:46;;;;;;;7.97;6.73;;;9.30;49.20;;;;;;5081316;28;39479;-79
2021/04/22 01:10:19;;;;;;;10.10;8.00;;;9.30;48.90;;;;;;5059295;28;37679;-79
2021/04/22 01:12:46;;;;;;;8.83;7.17;;;9.30;48.80;;;;;;5067639;28;37344;-79
2021/04/22 01:15:17;;;;;;;10.20;7.87;;;9.30;48.70;;;;;;5089237;28;37991;-79
2021/04/22 01:17:44;;;;;;;9.10;7.23;;;9.30;48.80;;;;;;5079572;28;40560;-79
2021/04/22 01:20:18;;;;;;;8.63;7.17;;;9.20;48.80;;;;;;5075399;28;39959;-79
2021/04/22 01:22:46;;;;;;;7.93;7.10;;;9.20;49.00;;;;;;5080843;28;39047;-79
2021/04/22 01:25:16;;;;;;;8.17;6.90;;;9.30;49.20;;;;;;5091513;28;37762;-79
2021/04/22 01:27:44;;;;;;;9.70;7.60;;;9.30;49.70;;;;;;5083992;28;41979;-79
2021/04/22 01:30:15;;;;;;;9.13;6.97;;;9.30;48.90;;;;;;5092986;28;39069;-80
2021/04/22 01:32:42;;;;;;;7.60;6.80;;;9.30;48.70;;;;;;5078547;28;38154;-79
2021/04/22 01:35:12;;;;;;;11.13;8.30;;;9.40;48.60;;;;;;5082257;28;37963;-79
2021/04/22 01:37:40;;;;;;;10.50;8.00;;;9.30;48.50;;;;;;5078415;28;39926;-79
2021/04/22 01:40:10;;;;;;;11.10;8.17;;;9.30;48.50;;;;;;5071265;28;38540;-79
2021/04/22 01:42:37;;;;;;;11.37;8.67;;;9.30;49.20;;;;;;5060749;28;37204;-79
2021/04/22 01:45:09;;;;;;;10.17;8.73;;;9.30;48.60;;;;;;5085186;28;37948;-79
2021/04/22 01:47:39;;;;;;;9.60;8.60;;;9.20;49.30;;;;;;5087457;28;40124;-80
2021/04/22 01:50:09;;;;;;;11.37;9.33;;;9.30;48.50;;;;;;5078904;28;38709;-79
2021/04/22 01:52:38;;;;;;;11.23;9.23;;;9.30;48.50;;;;;;5089434;28;38728;-79
2021/04/22 01:55:09;;;;;;;10.10;7.93;;;9.30;48.60;;;;;;5058663;28;36576;-79
2021/04/22 01:57:36;;;;;;;10.37;8.50;;;9.20;48.70;;;;;;5049937;28;39187;-79
2021/04/22 02:00:08;;;;;;;10.13;7.73;;;9.20;48.90;;;;;;5053781;28;38593;-80
2021/04/22 02:02:39;;;;;;;9.37;8.27;;;9.20;49.30;;;;;;5071298;28;39493;-78
2021/04/22 02:05:08;;;;;;;9.80;8.33;;;9.30;49.50;;;;;;5063272;28;36212;-79
2021/04/22 02:07:35;;;;;;;13.20;9.27;;;9.20;49.40;;;;;;5071794;28;39130;-79
2021/04/22 02:10:02;;;;;;;12.30;8.90;;;9.10;49.30;;;;;;5056795;28;38052;-79
2021/04/22 02:12:31;;;;;;;10.90;8.80;;;9.10;49.50;;;;;;5056073;28;38472;-79
2021/04/22 02:15:00;;;;;;;12.10;8.87;;;9.10;49.80;;;;;;5082172;28;37399;-79
2021/04/22 02:17:27;;;;;;;9.97;7.97;;;9.20;50.10;;;;;;5057634;28;40693;-78
2021/04/22 02:19:54;;;;;;;10.23;8.73;;;9.20;50.00;;;;;;5073538;28;38771;-79
2021/04/22 02:22:21;;;;;;;12.57;9.13;;;9.30;50.40;;;;;;5073287;28;38288;-79
2021/04/22 02:24:48;;;;;;;10.20;8.27;;;9.40;50.00;;;;;;5067418;28;36888;-79
2021/04/22 02:27:15;;;;;;;10.20;8.83;;;9.40;50.50;;;;;;5073907;28;40573;-79
2021/04/22 02:29:43;;;;;;;11.73;8.83;;;9.50;49.60;;;;;;5077480;28;39085;-78
2021/04/22 02:32:10;;;;;;;9.27;8.03;;;9.60;49.60;;;;;;5081753;28;39358;-79
2021/04/22 02:34:38;;;;;;;10.40;7.83;;;9.60;49.60;;;;;;5061623;28;36586;-78
2021/04/22 02:37:05;;;;;;;10.07;8.30;;;9.70;49.30;;;;;;5074694;28;39661;-78
2021/04/22 02:39:32;;;;;;;11.43;8.13;;;9.70;49.00;;;;;;5066885;28;39940;-78
2021/04/22 02:41:59;;;;;;;9.63;8.33;;;9.80;49.10;;;;;;5058818;28;37943;-79
2021/04/22 02:44:26;;;;;;;9.83;8.27;;;9.80;49.50;;;;;;5074468;28;36970;-77
2021/04/22 02:46:54;;;;;;;13.73;8.87;;;9.90;49.90;;;;;;5093593;28;39562;-77
2021/04/22 02:49:21;;;;;;;9.77;8.77;;;10.00;49.10;;;;;;5073725;28;39289;-77
2021/04/22 02:51:48;;;;;;;10.13;8.50;;;10.00;48.80;;;;;;5089373;28;37747;-77
2021/04/22 02:54:15;;;;;;;11.60;9.30;;;10.00;49.10;;;;;;5053596;28;35698;-78
2021/04/22 02:56:42;;;;;;;11.13;9.20;;;10.00;49.10;;;;;;5076106;28;39638;-78
2021/04/22 02:59:09;;;;;;;11.67;8.70;;;10.00;48.80;;;;;;5073041;28;39366;-78
2021/04/22 03:01:38;;;;;;;11.90;9.20;;;10.00;48.80;;;;;;5074675;28;38353;-78
2021/04/22 03:04:07;;;;;;;11.37;8.60;;;9.90;49.70;;;;;;5089232;28;36936;-79
2021/04/22 03:06:34;;;;;;;9.73;8.17;;;9.80;49.90;;;;;;5074918;28;39386;-79
2021/04/22 03:09:02;;;;;;;10.50;8.30;;;9.70;49.80;;;;;;5055480;28;37690;-79
2021/04/22 03:11:29;;;;;;;9.47;8.50;;;9.60;50.00;;;;;;5063599;28;38222;-79
2021/04/22 03:13:58;;;;;;;9.00;8.07;;;9.50;50.40;;;;;;5073636;28;37650;-80
2021/04/22 03:16:25;;;;;;;13.03;8.53;;;9.40;50.40;;;;;;5056087;28;38646;-80
2021/04/22 03:18:52;;;;;;;12.10;9.30;;;9.30;50.70;;;;;;5056474;28;38831;-80
2021/04/22 03:21:20;;;;;;;10.80;9.07;;;9.20;50.90;;;;;;5089899;28;37080;-79
2021/04/22 03:23:47;;;;;;;11.97;8.90;;;9.20;51.40;;;;;;5073007;28;37256;-80
2021/04/22 03:26:14;;;;;;;10.70;8.60;;;9.10;51.50;;;;;;5069648;28;39436;-80
2021/04/22 03:28:41;;;;;;;11.70;8.80;;;9.10;51.50;;;;;;5055599;28;37834;-79
2021/04/22 03:31:08;;;;;;;10.63;8.40;;;9.00;51.60;;;;;;5068914;28;38589;-80
2021/04/22 03:33:35;;;;;;;10.90;8.60;;;9.00;51.50;;;;;;5062025;28;35634;-80
2021/04/22 03:36:06;;;;;;;10.37;8.30;;;9.00;51.50;;;;;;5074593;28;40755;-79
2021/04/22 03:38:34;;;;;;;12.00;8.50;;;9.00;51.60;;;;;;5061762;28;37635;-80
2021/04/22 03:41:01;;;;;;;9.53;7.80;;;9.10;51.70;;;;;;5074114;28;38656;-79
2021/04/22 03:43:30;;;;;;;11.50;9.17;;;9.10;51.60;;;;;;5057946;28;36777;-79
2021/04/22 03:45:57;;;;;;;11.70;8.97;;;9.20;51.60;;;;;;5075339;28;39929;-79
2021/04/22 03:48:24;;;;;;;15.30;8.97;;;9.20;51.60;;;;;;5076024;28;39462;-79
2021/04/22 03:50:51;;;;;;;12.63;9.30;;;9.30;51.60;;;;;;5058411;28;37491;-78
2021/04/22 03:53:18;;;;;;;13.50;9.20;;;9.40;51.40;;;;;;5075130;28;37883;-79
2021/04/22 03:55:46;;;;;;;10.90;9.10;;;9.50;51.50;;;;;;5072866;28;40091;-78
2021/04/22 03:58:13;;;;;;;11.37;9.23;;;9.50;51.10;;;;;;5088835;28;39295;-79
2021/04/22 04:00:40;;;;;;;12.57;10.03;;;9.40;51.50;;;;;;5031175;28;37051;-80
2021/04/22 04:03:07;;;;;;;11.43;8.73;;;9.40;51.80;;;;;;5067982;28;37378;-80
2021/04/22 04:05:36;;;;;;;11.10;9.13;;;9.40;51.80;;;;;;5083208;28;39989;-80
2021/04/22 04:08:04;;;;;;;11.80;9.30;;;9.40;52.10;;;;;;5081676;28;39599;-79
2021/04/22 04:10:31;;;;;;;10.93;9.33;;;9.40;51.70;;;;;;5061367;28;37163;-80
2021/04/22 04:12:59;;;;;;;11.77;10.03;;;9.40;51.70;;;;;;5106062;28;35994;-80
2021/04/22 04:15:26;;;;;;;11.10;9.43;;;9.50;51.80;;;;;;5049920;28;38455;-79
2021/04/22 04:17:53;;;;;;;13.10;9.80;;;9.50;52.00;;;;;;5087996;28;38711;-80
2021/04/22 04:20:23;;;;;;;16.23;10.93;;;9.40;51.80;;;;;;5076365;28;39024;-80
2021/04/22 04:22:50;;;;;;;13.73;9.30;;;9.40;51.80;;;;;;5090658;28;36290;-79
2021/04/22 04:25:17;;;;;;;14.23;10.63;;;9.40;52.00;;;;;;5075142;28;39263;-80
2021/04/22 04:27:44;;;;;;;14.77;10.70;;;9.40;52.40;;;;;;5076699;28;40319;-79
2021/04/22 04:30:15;;;;;;;15.33;10.70;;;9.40;52.50;;;;;;5073218;28;38337;-79
2021/04/22 04:32:43;;;;;;;16.03;11.50;;;9.50;52.90;;;;;;5071238;28;37742;-79
2021/04/22 04:35:14;;;;;;;14.00;9.60;;;9.50;53.30;;;;;;5074631;28;39547;-80
2021/04/22 04:37:41;;;;;;;12.40;10.13;;;9.50;53.20;;;;;;5077687;28;38919;-79
2021/04/22 04:40:11;;;;;;;13.40;9.43;;;9.60;53.00;;;;;;5050848;28;38220;-79
2021/04/22 04:42:38;;;;;;;10.60;9.30;;;9.60;53.00;;;;;;5074666;28;36981;-79
2021/04/22 04:45:07;;;;;;;11.27;9.03;;;9.60;53.30;;;;;;5076582;28;40570;-80
2021/04/22 04:47:35;;;;;;;10.57;9.40;;;9.60;53.30;;;;;;5078944;28;39955;-79
2021/04/22 04:50:03;;;;;;;12.10;9.10;;;9.60;53.20;;;;;;5076547;28;39291;-80
2021/04/22 04:52:30;;;;;;;11.13;9.73;;;9.60;53.10;;;;;;5077033;28;36751;-80
2021/04/22 04:54:57;;;;;;;10.77;8.20;;;9.70;52.80;;;;;;5059224;28;39240;-79
2021/04/22 04:57:24;;;;;;;11.50;8.73;;;9.70;53.00;;;;;;5077990;28;39494;-79
2021/04/22 04:59:52;;;;;;;14.87;10.10;;;9.80;53.10;;;;;;5076483;28;39033;-79
2021/04/22 05:02:19;;;;;;;11.10;9.77;;;9.90;53.00;;;;;;5092399;28;36178;-79
2021/04/22 05:04:47;;;;;;;10.20;9.10;;;10.00;51.90;;;;;;5092186;28;38320;-79
2021/04/22 05:07:16;;;;;;;11.40;9.77;;;10.20;51.80;;;;;;5061980;28;38595;-79
2021/04/22 05:09:43;;;;;;;12.77;9.97;;;10.30;51.30;;;;;;5075018;28;38642;-79
2021/04/22 05:12:12;;;;;;;18.93;10.80;;;10.40;50.90;;;;;;5074279;28;37703;-79
2021/04/22 05:14:40;;;;;;;14.63;9.40;;;10.60;50.80;;;;;;5065064;28;38336;-79
2021/04/22 05:17:08;;;;;;;11.90;9.73;;;10.70;51.40;;;;;;5075266;28;39646;-79
2021/04/22 05:19:35;;;;;;;14.20;9.77;;;10.90;49.90;;;;;;5081856;28;38456;-79
2021/04/22 05:22:03;;;;;;;14.23;10.20;;;11.00;49.30;;;;;;5074302;28;37060;-79
2021/04/22 05:24:30;;;;;;;18.57;10.27;;;11.10;49.10;;;;;;5075899;28;39647;-79
2021/04/22 05:26:59;;;;;;;12.90;10.93;;;11.40;48.90;;;;;;5073031;28;38892;-79
2021/04/22 05:29:26;;;;;;;11.87;9.10;;;11.70;48.90;;;;;;5073314;28;38425;-80
2021/04/22 05:31:53;;;;;;;13.80;9.47;;;12.20;48.10;;;;;;5074089;28;37712;-80
2021/04/22 05:34:21;;;;;;;10.10;9.00;;;12.80;47.30;;;;;;5073274;28;39735;-78
2021/04/22 05:36:48;;;;;;;12.80;10.10;;;13.40;46.20;;;;;;5069052;28;39854;-79
2021/04/22 05:39:18;;;;;;;23.80;11.07;;;14.00;44.30;;;;;;5044352;28;38338;-78
2021/04/22 05:41:48;;;;;;;18.80;11.20;;;14.20;43.20;;;;;;5060250;28;37356;-78
2021/04/22 05:44:17;;;;;;;13.00;9.87;;;14.30;43.00;;;;;;5052844;28;38926;-79
2021/04/22 05:46:45;;;;;;;14.20;10.00;;;14.30;42.10;;;;;;5062095;28;39272;-79
2021/04/22 05:49:12;;;;;;;11.47;9.37;;;14.40;42.00;;;;;;5064305;28;38774;-79
2021/04/22 05:51:40;;;;;;;10.00;8.67;;;14.70;41.10;;;;;;5061916;28;37770;-79
2021/04/22 05:54:07;;;;;;;16.70;9.47;;;14.90;40.40;;;;;;5073779;28;40908;-79
2021/04/22 05:56:35;;;;;;;11.30;9.50;;;15.10;40.20;;;;;;5053045;28;37738;-79
2021/04/22 05:59:04;;;;;;;11.80;9.97;;;15.50;39.80;;;;;;5068900;28;38999;-79
2021/04/22 06:01:31;;;;;;;10.83;9.60;;;16.10;38.90;;;;;;5074141;28;37647;-79
2021/04/22 06:03:58;;;;;;;10.77;9.17;;;16.80;37.40;;;;;;5048165;28;38961;-80
2021/04/22 06:06:25;;;;;;;11.17;8.73;;;17.70;37.10;;;;;;5073977;28;39230;-81
2021/04/22 06:08:52;;;;;;;13.60;9.13;;;18.70;34.60;;;;;;5073815;28;39402;-79
2021/04/22 06:11:19;;;;;;;13.20;9.77;;;19.70;33.90;;;;;;5074031;28;37065;-79
2021/04/22 06:13:50;;;;;;;10.87;9.77;;;20.40;31.70;;;;;;5073575;28;39744;-79
2021/04/22 06:16:17;;;;;;;12.67;9.73;;;20.80;31.20;;;;;;5060137;28;38613;-79
2021/04/22 06:18:46;;;;;;;9.73;8.83;;;20.90;30.00;;;;;;5066404;28;38668;-79
2021/04/22 06:21:13;;;;;;;11.07;10.07;;;20.80;30.00;;;;;;5073315;28;36894;-79
2021/04/22 06:23:40;;;;;;;10.20;9.27;;;20.30;29.80;;;;;;5054787;28;38977;-79
2021/04/22 06:26:09;;;;;;;12.83;9.90;;;19.90;30.70;;;;;;5073998;28;39279;-79
2021/04/22 06:28:36;;;;;;;13.33;9.73;;;19.60;31.00;;;;;;5070993;28;38341;-79
2021/04/22 06:31:05;;;;;;;12.43;9.90;;;19.10;31.60;;;;;;5072059;28;37131;-79
2021/04/22 06:33:32;;;;;;;13.50;11.00;;;18.50;32.50;;;;;;5077900;28;40966;-79
2021/04/22 06:35:59;;;;;;;13.23;9.97;;;18.00;33.60;;;;;;5074539;28;38734;-79
2021/04/22 06:38:26;;;;;;;14.40;10.83;;;17.70;33.40;;;;;;5088959;28;38438;-78
2021/04/22 06:40:53;;;;;;;12.07;10.87;;;17.00;34.50;;;;;;5064943;28;37723;-76
2021/04/22 06:43:20;;;;;;;23.20;12.47;;;16.40;35.30;;;;;;5071987;28;40449;-77
2021/04/22 06:45:47;;;;;;;12.30;10.40;;;16.00;37.20;;;;;;5048513;28;38691;-77
2021/04/22 06:48:16;;;;;;;12.67;10.57;;;15.80;36.70;;;;;;5066250;28;38206;-76
2021/04/22 06:50:44;;;;;;;11.20;9.60;;;15.40;37.50;;;;;;5066548;28;37812;-76
2021/04/22 06:53:11;;;;;;;11.20;10.03;;;15.30;37.30;;;;;;5051724;28;39193;-77
2021/04/22 06:55:40;;;;;;;14.07;10.53;;;14.70;38.40;;;;;;5068023;28;39324;-76
2021/04/22 06:58:08;;;;;;;16.07;11.40;;;14.40;39.70;;;;;;5055641;28;38642;-75
2021/04/22 07:00:37;;;;;;;13.00;10.40;;;14.40;39.90;;;;;;5072313;28;37451;-76
2021/04/22 07:03:05;;;;;;;14.77;11.00;;;14.40;39.90;;;;;;5061864;28;39513;-78
2021/04/22 07:05:34;;;;;;;15.97;12.40;;;14.50;39.80;;;;;;5058521;28;39916;-79
2021/04/22 07:08:01;;;;;;;16.50;11.23;;;14.70;39.40;;;;;;5053676;28;37499;-79
2021/04/22 07:10:28;;;;;;;14.83;11.50;;;14.80;39.50;;;;;;5043088;28;35793;-78
2021/04/22 07:12:55;;;;;;;13.37;10.87;;;14.90;39.20;;;;;;5062630;28;41095;-80
2021/04/22 07:15:30;;;;;;;15.40;11.40;;;15.00;39.00;;;;;;5053480;28;38381;-79
2021/04/22 07:17:58;;;;;;;14.20;11.17;;;15.10;38.90;;;;;;5048382;28;38809;-79
2021/04/22 07:20:30;;;;;;;14.93;11.63;;;14.90;38.40;;;;;;5029190;28;36047;-79
2021/04/22 07:23:00;;;;;;;14.80;13.10;;;14.80;38.90;;;;;;5052037;28;40135;-81
2021/04/22 07:25:29;;;;;;;16.13;12.33;;;14.70;39.20;;;;;;5049600;28;39173;-79
2021/04/22 07:27:57;;;;;;;14.67;12.70;;;14.70;39.00;;;;;;5055390;28;39237;-80
2021/04/22 07:30:25;;;;;;;17.77;13.47;;;14.70;39.30;;;;;;5050081;28;37286;-79
2021/04/22 07:32:55;;;;;;;14.77;13.27;;;14.70;39.10;;;;;;5049501;28;40348;-79
2021/04/22 07:35:23;;;;;;;15.00;12.37;;;14.60;38.40;;;;;;5055039;28;39849;-79
2021/04/22 07:37:51;;;;;;;16.83;12.80;;;14.40;37.90;;;;;;5046904;28;38618;-80
2021/04/22 07:40:22;;;;;;;13.93;11.90;;;14.30;38.40;;;;;;5051876;28;38927;-79
2021/04/22 07:42:50;;;;;;;16.53;12.50;;;14.00;38.70;;;;;;5032655;28;39008;-80
2021/04/22 07:45:19;;;;;;;14.97;12.03;;;14.00;39.40;;;;;;5058003;28;39314;-78
2021/04/22 07:47:46;;;;;;;16.30;13.30;;;14.00;38.80;;;;;;5041313;28;39275;-78
2021/04/22 07:50:15;;;;;;;14.20;12.10;;;13.90;38.70;;;;;;5032375;28;36163;-78
2021/04/22 07:52:45;;;;;;;16.67;12.57;;;14.20;38.80;;;;;;5062146;28;38514;-78
2021/04/22 07:55:17;;;;;;;16.70;12.30;;;14.30;38.30;;;;;;5050947;28;39556;-79
2021/04/22 07:57:45;;;;;;;19.70;12.60;;;14.70;38.40;;;;;;5055630;28;39172;-79
2021/04/22 08:00:15;;;;;;;22.63;12.80;;;15.10;37.70;;;;;;5046672;28;37278;-79
2021/04/22 08:02:46;;;;;;;15.30;12.90;;;15.50;37.10;;;;;;5051860;28;40555;-78
2021/04/22 08:05:17;;;;;;;13.00;11.67;;;15.80;36.40;;;;;;5056677;28;37764;-82
2021/04/22 08:07:44;;;;;;;17.53;14.13;;;16.00;35.50;;;;;;5076149;28;38062;-81
2021/04/22 08:10:13;;;;;;;15.47;12.93;;;16.00;34.60;;;;;;5079888;28;37275;-80
2021/04/22 08:12:40;;;;;;;16.40;13.50;;;16.20;35.30;;;;;;5074108;28;39995;-81
2021/04/22 08:15:11;;;;;;;16.70;13.60;;;16.40;34.80;;;;;;5073057;28;39959;-80
2021/04/22 08:17:41;;;;;;;17.50;14.20;;;16.50;35.00;;;;;;5069254;28;38558;-79
2021/04/22 08:20:11;;;;;;;17.40;13.20;;;16.40;34.70;;;;;;5074892;28;38321;-82
2021/04/22 08:22:38;;;;;;;17.10;12.90;;;16.30;34.80;;;;;;5055622;28;39424;-81
2021/04/22 08:25:07;;;;;;;17.73;14.60;;;16.20;34.30;;;;;;5071446;28;39699;-81
2021/04/22 08:27:35;;;;;;;18.40;13.87;;;16.10;33.90;;;;;;5055538;28;37469;-81
2021/04/22 08:30:05;;;;;;;16.23;14.00;;;16.20;34.00;;;;;;5064231;28;38319;-81
2021/04/22 08:32:33;;;;;;;18.27;14.20;;;16.30;33.90;;;;;;5072302;28;39600;-81
2021/04/22 08:35:02;;;;;;;18.90;14.87;;;16.30;33.40;;;;;;5067781;28;39154;-80
2021/04/22 08:37:29;;;;;;;16.93;12.90;;;16.30;33.50;;;;;;5072631;28;38148;-78
2021/04/22 08:39:57;;;;;;;18.47;12.30;;;16.20;34.10;;;;;;5073607;28;37387;-78
2021/04/22 08:42:24;;;;;;;21.07;13.50;;;15.90;34.20;;;;;;5057287;28;38341;-77
2021/04/22 08:44:51;;;;;;;23.77;13.40;;;15.70;35.00;;;;;;5076567;28;39961;-78
2021/04/22 08:47:19;;;;;;;17.50;13.10;;;15.50;35.30;;;;;;5075199;28;38204;-77
2021/04/22 08:49:48;;;;;;;16.40;12.80;;;15.40;35.20;;;;;;5068093;28;37516;-78
2021/04/22 08:52:16;;;;;;;16.73;12.60;;;15.30;35.60;;;;;;5071025;28;39920;-76
2021/04/22 08:54:43;;;;;;;19.27;14.27;;;15.20;35.80;;;;;;5068351;28;38967;-77
2021/04/22 08:57:10;;;;;;;21.10;13.63;;;15.10;35.80;;;;;;5074888;28;39925;-77
2021/04/22 08:59:37;;;;;;;17.93;13.00;;;15.00;35.70;;;;;;5064915;28;38261;-77
2021/04/22 09:02:04;;;;;;;15.70;12.43;;;15.00;35.90;;;;;;5072813;28;40663;-77
2021/04/22 09:04:33;;;;;;;17.77;12.67;;;14.70;35.50;;;;;;5075139;28;38765;-77
2021/04/22 09:07:01;;;;;;;15.13;11.43;;;14.80;36.50;;;;;;5052696;28;37411;-77
2021/04/22 09:09:28;;;;;;;14.53;11.70;;;14.90;35.60;;;;;;5061873;28;37305;-77
2021/04/22 09:11:55;;;;;;;16.47;13.37;;;15.00;35.70;;;;;;5075070;28;39702;-76
2021/04/22 09:14:24;;;;;;;16.20;12.27;;;15.20;34.80;;;;;;5075132;28;39311;-77
2021/04/22 09:16:53;;;;;;;16.63;11.80;;;15.50;34.90;;;;;;5077120;28;39776;-76
2021/04/22 09:19:23;;;;;;;17.93;12.10;;;16.10;34.10;;;;;;5077433;28;38969;-77
2021/04/22 09:21:55;;;;;;;15.50;12.30;;;16.60;32.50;;;;;;5091534;28;39122;-76
2021/04/22 09:24:27;;;;;;;12.60;11.30;;;16.80;32.60;;;;;;5053003;28;39027;-77
2021/04/22 09:26:59;;;;;;;16.03;11.87;;;17.70;31.50;;;;;;5082301;28;38144;-76
2021/04/22 09:29:32;;;;;;;17.00;11.60;;;18.60;30.60;;;;;;5052255;28;37094;-77
2021/04/22 09:32:11;;;;;;;13.00;11.60;;;19.30;29.30;;;;;;5070112;28;39266;-78
2021/04/22 09:34:39;;;;;;;12.90;11.30;;;19.70;28.70;;;;;;5050964;28;37846;-76
2021/04/22 09:37:08;;;;;;;14.83;11.17;;;20.40;28.00;;;;;;5051771;28;38128;-77
2021/04/22 09:39:36;;;;;;;15.73;12.03;;;21.20;26.80;;;;;;5052369;28;36270;-77
2021/04/22 09:42:10;;;;;;;13.10;11.00;;;21.90;25.70;;;;;;5080226;28;40306;-77
2021/04/22 09:44:40;;;;;;;13.97;12.50;;;22.00;25.90;;;;;;5068177;28;39609;-78
2021/04/22 09:47:10;;;;;;;16.50;12.87;;;21.60;25.90;;;;;;5090912;28;37155;-78
2021/04/22 09:49:49;;;;;;;17.37;11.93;;;20.70;26.40;;;;;;5075588;28;37227;-76
2021/04/22 09:52:18;;;;;;;12.57;10.50;;;19.80;26.90;;;;;;5053046;28;38481;-76
2021/04/22 09:54:48;;;;;;;12.97;11.60;;;19.70;28.10;;;;;;5072822;28;38999;-79
2021/04/22 09:57:29;;;;;;;13.00;11.03;;;21.10;26.40;;;;;;5085959;28;37432;-77
2021/04/22 09:59:58;;;;;;;16.63;10.97;;;23.10;25.20;;;;;;5058961;28;37390;-77
2021/04/22 10:02:25;;;;;;;13.47;11.80;;;24.00;23.70;;;;;;5073422;28;40649;-76
2021/04/22 10:04:54;;;;;;;12.50;11.20;;;24.10;23.50;;;;;;5070505;28;39095;-77
2021/04/22 10:07:24;;;;;;;14.83;12.40;;;24.10;23.60;;;;;;5060940;28;37904;-78
2021/04/22 10:09:56;;;;;;;15.37;11.70;;;23.60;23.80;;;;;;5050814;28;37788;-78
2021/04/22 10:12:26;;;;;;;14.30;11.57;;;23.00;23.90;;;;;;5070199;28;39725;-78
2021/04/22 10:14:53;;;;;;;20.10;11.00;;;24.00;24.50;;;;;;5075814;28;38905;-80
2021/04/22 10:17:22;;;;;;;11.77;10.67;;;26.00;23.50;;;;;;5072478;28;39473;-78
2021/04/22 10:19:58;;;;;;;13.90;11.50;;;27.70;21.30;;;;;;5059510;28;37724;-80
2021/04/22 10:22:29;;;;;;;15.43;11.83;;;28.80;19.70;;;;;;5071797;28;40132;-80
2021/04/22 10:24:59;;;;;;;11.50;10.30;;;28.70;19.60;;;;;;5069996;28;38839;-79
2021/04/22 10:27:27;;;;;;;14.23;11.70;;;28.60;19.20;;;;;;5075629;28;38526;-80
2021/04/22 10:29:55;;;;;;;12.63;11.10;;;29.00;19.00;;;;;;5079390;28;37184;-80
2021/04/22 10:32:23;;;;;;;16.80;11.93;;;29.90;18.10;;;;;;5078567;28;40527;-77
2021/04/22 10:34:52;;;;;;;12.07;10.87;;;30.50;18.00;;;;;;5053158;28;37763;-80
2021/04/22 10:37:23;;;;;;;13.90;10.07;;;31.00;17.20;;;;;;5072443;28;39535;-80
2021/04/22 10:39:54;;;;;;;12.73;11.33;;;30.90;17.50;;;;;;5074246;28;37424;-78
2021/04/22 10:42:25;;;;;;;12.13;10.87;;;30.60;17.30;;;;;;5065775;28;39844;-79
2021/04/22 10:44:52;;;;;;;16.00;10.70;;;30.20;17.00;;;;;;5071572;28;40050;-80
2021/04/22 10:47:22;;;;;;;12.77;11.37;;;29.70;17.50;;;;;;5076848;28;38825;-79
2021/04/22 10:49:52;;;;;;;12.53;10.50;;;29.30;17.40;;;;;;5088639;28;34929;-80
2021/04/22 10:52:21;;;;;;;13.47;10.63;;;29.30;17.60;;;;;;5072164;28;40321;-80
2021/04/22 10:54:50;;;;;;;13.77;10.57;;;29.40;17.40;;;;;;5059295;28;38898;-80
2021/04/22 10:57:20;;;;;;;19.03;9.37;;;29.70;16.90;;;;;;5055509;28;37491;-79
2021/04/22 11:00:02;;;;;;;11.97;9.53;;;29.40;17.00;;;;;;5050903;28;36288;-80
2021/04/22 11:02:29;;;;;;;11.83;10.03;;;28.80;17.10;;;;;;5068258;28;40526;-79
2021/04/22 11:04:56;;;;;;;14.77;10.13;;;27.90;18.00;;;;;;5055046;28;37840;-79
2021/04/22 11:07:24;;;;;;;11.97;10.40;;;27.40;19.00;;;;;;5069065;28;37285;-81
2021/04/22 11:09:53;;;;;;;14.00;11.63;;;26.90;19.00;;;;;;5062963;28;38299;-80
2021/04/22 11:12:39;;;;;;;15.37;10.97;;;26.60;19.20;;;;;;5058943;28;39399;-79
2021/04/22 11:15:18;;;;;;;10.53;9.43;;;26.10;19.60;;;;;;5058908;28;39063;-78
2021/04/22 11:17:45;;;;;;;10.80;8.30;;;25.90;19.00;;;;;;5070082;28;39550;-79
2021/04/22 11:20:17;;;;;;;9.27;8.33;;;25.50;19.00;;;;;;5070977;28;37881;-80
2021/04/22 11:22:46;;;;;;;9.10;8.07;;;25.20;19.20;;;;;;5051981;28;39574;-79
2021/04/22 11:25:18;;;;;;;10.40;8.50;;;25.10;19.40;;;;;;5064300;28;38707;-79
2021/04/22 11:27:48;;;;;;;9.37;7.50;;;24.70;19.90;;;;;;5043150;28;37971;-80
2021/04/22 11:30:26;;;;;;;13.07;8.17;;;24.40;20.10;;;;;;5074183;28;37820;-79
2021/04/22 11:32:58;;;;;;;12.63;7.30;;;23.50;19.60;;;;;;5065853;28;39705;-79
2021/04/22 11:35:27;;;;;;;15.73;8.53;;;23.00;20.70;;;;;;5075583;28;39262;-80
2021/04/22 11:37:56;;;;;;;11.63;7.03;;;22.60;20.90;;;;;;5054775;28;37440;-79
2021/04/22 11:40:27;;;;;;;11.30;7.43;;;22.40;20.60;;;;;;5046928;28;35942;-79
2021/04/22 11:42:56;;;;;;;10.87;7.00;;;22.20;21.00;;;;;;5068932;28;40482;-79
2021/04/22 11:45:26;;;;;;;14.43;7.03;;;21.80;21.30;;;;;;5068785;28;39819;-79
2021/04/22 11:47:56;;;;;;;9.43;6.40;;;21.60;20.60;;;;;;5064690;28;39616;-79
2021/04/22 11:50:28;;;;;;;12.23;6.93;;;21.40;21.10;;;;;;5026452;28;36148;-79
2021/04/22 11:52:56;;;;;;;10.10;5.97;;;21.00;20.70;;;;;;5032695;28;39602;-80
2021/04/22 11:55:25;;;;;;;7.90;6.00;;;20.60;20.50;;;;;;5033042;28;39447;-79
2021/04/22 11:57:58;;;;;;;9.83;5.20;;;20.20;20.70;;;;;;5027945;28;38207;-80
2021/04/22 12:00:28;;;;;;;9.80;5.07;;;19.90;20.40;;;;;;5019959;28;36870;-79
2021/04/22 12:02:56;;;;;;;9.47;6.17;;;19.60;21.10;;;;;;5024851;28;40428;-79
2021/04/22 12:05:24;;;;;;;8.43;4.63;;;19.40;21.10;;;;;;5031459;28;39262;-79
2021/04/22 12:07:57;;;;;;;6.90;4.57;;;19.20;20.70;;;;;;5022331;28;38132;-80
2021/04/22 12:10:25;;;;;;;5.73;4.53;;;19.00;19.70;;;;;;5033796;28;37986;-80
2021/04/22 12:12:52;;;;;;;7.23;4.10;;;18.80;19.90;;;;;;5001814;28;38175;-80
2021/04/22 12:15:21;;;;;;;10.10;4.97;;;18.60;20.60;;;;;;5031085;28;40216;-80
2021/04/22 12:17:49;;;;;;;10.67;4.43;;;18.40;19.90;;;;;;5024837;28;38092;-80
2021/04/22 12:20:18;;;;;;;10.60;4.40;;;18.30;20.20;;;;;;5028467;28;37921;-78
2021/04/22 12:22:48;;;;;;;10.77;4.60;;;18.10;19.50;;;;;;5053847;28;40441;-79
2021/04/22 12:25:19;;;;;;;8.47;3.90;;;18.10;19.60;;;;;;4996827;28;37547;-79
2021/04/22 12:27:49;;;;;;;8.63;3.67;;;18.00;19.30;;;;;;5069925;28;38368;-80
2021/04/22 12:30:28;;;;;;;9.00;3.70;;;17.90;18.50;;;;;;5057340;28;37438;-80
2021/04/22 12:33:01;;;;;;;8.80;6.47;;;17.60;18.70;;;;;;5030836;28;38427;-79
2021/04/22 12:35:31;;;;;;;6.23;3.70;;;17.50;17.70;;;;;;5035552;28;38901;-78
2021/04/22 12:38:12;;;;;;;9.50;3.30;;;17.40;18.20;;;;;;5054515;28;38372;-79
2021/04/22 12:40:40;;;;;;;11.33;3.50;;;17.30;17.80;;;;;;5057527;28;38127;-79
2021/04/22 12:43:08;;;;;;;7.80;4.60;;;17.20;17.80;;;;;;5029665;28;38237;-81
2021/04/22 12:45:37;;;;;;;8.20;2.70;;;17.10;17.30;;;;;;5053717;28;37064;-80